sensor_id;sensor_type;location;lat;lon;timestamp;pressure;altitude;pressure_sealevel;temperature;humidity
70370;BME280;57790;51.356;-2.906;2023-12-07T00:00:49;101168.41;;;9.08;100.00
70370;BME280;57790;51.356;-2.906;2023-12-07T00:03:50;101175.53;;;8.98;100.00
70370;BME280;57790;51.356;-2.906;2023-12-07T00:06:50;101166.88;;;8.96;100.00
70370;BME280;57790;51.356;-2.906;2023-12-07T00:09:50;101170.63;;;9.13;100.00
70370;BME280;57790;51.356;-2.906;2023-12-07T00:12:52;101154.19;;;9.19;100.00
70370;BME280;57790;51.356;-2.906;2023-12-07T00:15:52;101154.94;;;9.02;100.00
70370;BME280;57790;51.356;-2.906;2023-12-07T00:18:52;101142.63;;;9.10;100.00
70370;BME280;57790;51.356;-2.906;2023-12-07T00:21:53;101145.28;;;9.10;100.00
70370;BME280;57790;51.356;-2.906;2023-12-07T00:24:54;101138.91;;;9.03;100.00
70370;BME280;57790;51.356;-2.906;2023-12-07T00:27:54;101126.28;;;8.97;100.00
70370;BME280;57790;51.356;-2.906;2023-12-07T00:30:54;101113.84;;;9.07;100.00
70370;BME280;57790;51.356;-2.906;2023-12-07T00:33:55;101108.84;;;8.94;100.00
70370;BME280;57790;51.356;-2.906;2023-12-07T00:36:55;101114.44;;;9.01;100.00
70370;BME280;57790;51.356;-2.906;2023-12-07T00:39:56;101114.38;;;9.11;100.00
70370;BME280;57790;51.356;-2.906;2023-12-07T00:42:57;101111.72;;;9.11;100.00
70370;BME280;57790;51.356;-2.906;2023-12-07T00:45:58;101098.50;;;9.11;100.00
70370;BME280;57790;51.356;-2.906;2023-12-07T00:48:58;101106.03;;;9.15;100.00
70370;BME280;57790;51.356;-2.906;2023-12-07T00:51:58;101097.59;;;9.02;100.00
70370;BME280;57790;51.356;-2.906;2023-12-07T00:54:59;101104.38;;;9.14;100.00
70370;BME280;57790;51.356;-2.906;2023-12-07T00:58:00;101100.22;;;9.02;100.00
70370;BME280;57790;51.356;-2.906;2023-12-07T01:01:01;101097.13;;;9.07;100.00
70370;BME280;57790;51.356;-2.906;2023-12-07T01:04:03;101097.28;;;9.05;100.00
70370;BME280;57790;51.356;-2.906;2023-12-07T01:07:04;101087.25;;;9.09;100.00
70370;BME280;57790;51.356;-2.906;2023-12-07T01:10:04;101074.47;;;9.04;100.00
70370;BME280;57790;51.356;-2.906;2023-12-07T01:13:06;101075.00;;;9.08;100.00
70370;BME280;57790;51.356;-2.906;2023-12-07T01:16:06;101069.88;;;9.06;100.00
70370;BME280;57790;51.356;-2.906;2023-12-07T01:19:07;101053.44;;;9.12;100.00
70370;BME280;57790;51.356;-2.906;2023-12-07T01:22:07;101035.47;;;9.16;100.00
70370;BME280;57790;51.356;-2.906;2023-12-07T01:25:08;101040.06;;;9.14;100.00
70370;BME280;57790;51.356;-2.906;2023-12-07T01:28:08;101024.03;;;9.15;100.00
70370;BME280;57790;51.356;-2.906;2023-12-07T01:31:09;101010.41;;;9.10;100.00
70370;BME280;57790;51.356;-2.906;2023-12-07T01:34:10;101009.78;;;8.99;100.00
70370;BME280;57790;51.356;-2.906;2023-12-07T01:37:11;101007.50;;;9.13;100.00
70370;BME280;57790;51.356;-2.906;2023-12-07T01:40:12;101006.81;;;9.11;100.00
70370;BME280;57790;51.356;-2.906;2023-12-07T01:43:12;101003.91;;;9.05;100.00
70370;BME280;57790;51.356;-2.906;2023-12-07T01:46:14;100983.78;;;9.21;100.00
70370;BME280;57790;51.356;-2.906;2023-12-07T01:49:15;100994.94;;;9.15;100.00
70370;BME280;57790;51.356;-2.906;2023-12-07T01:52:16;100991.31;;;9.16;100.00
70370;BME280;57790;51.356;-2.906;2023-12-07T01:55:17;100966.00;;;9.14;100.00
70370;BME280;57790;51.356;-2.906;2023-12-07T01:58:19;100975.34;;;9.08;100.00
70370;BME280;57790;51.356;-2.906;2023-12-07T02:01:20;100980.25;;;9.03;100.00
70370;BME280;57790;51.356;-2.906;2023-12-07T02:04:20;100978.56;;;9.12;100.00
70370;BME280;57790;51.356;-2.906;2023-12-07T02:07:23;100975.06;;;9.11;100.00
70370;BME280;57790;51.356;-2.906;2023-12-07T02:10:24;100964.34;;;9.13;100.00
70370;BME280;57790;51.356;-2.906;2023-12-07T02:13:24;100958.94;;;9.05;100.00
70370;BME280;57790;51.356;-2.906;2023-12-07T02:16:42;100949.47;;;9.12;100.00
70370;BME280;57790;51.356;-2.906;2023-12-07T02:19:59;100941.66;;;9.10;100.00
70370;BME280;57790;51.356;-2.906;2023-12-07T02:23:01;100940.69;;;9.11;100.00
70370;BME280;57790;51.356;-2.906;2023-12-07T02:26:06;100937.75;;;9.14;100.00
70370;BME280;57790;51.356;-2.906;2023-12-07T02:29:08;100933.44;;;9.13;100.00
70370;BME280;57790;51.356;-2.906;2023-12-07T02:32:09;100936.22;;;9.12;100.00
70370;BME280;57790;51.356;-2.906;2023-12-07T02:35:10;100932.97;;;9.18;100.00
70370;BME280;57790;51.356;-2.906;2023-12-07T02:38:14;100920.50;;;9.10;100.00
70370;BME280;57790;51.356;-2.906;2023-12-07T02:41:18;100911.44;;;9.13;100.00
70370;BME280;57790;51.356;-2.906;2023-12-07T02:44:18;100923.53;;;9.15;100.00
70370;BME280;57790;51.356;-2.906;2023-12-07T02:47:19;100923.44;;;9.07;100.00
70370;BME280;57790;51.356;-2.906;2023-12-07T02:50:20;100912.84;;;9.07;100.00
70370;BME280;57790;51.356;-2.906;2023-12-07T02:53:20;100883.72;;;9.17;100.00
70370;BME280;57790;51.356;-2.906;2023-12-07T02:56:21;100868.53;;;9.19;100.00
70370;BME280;57790;51.356;-2.906;2023-12-07T02:59:21;100864.84;;;9.30;100.00
70370;BME280;57790;51.356;-2.906;2023-12-07T03:02:22;100857.72;;;9.30;100.00
70370;BME280;57790;51.356;-2.906;2023-12-07T03:05:22;100850.38;;;9.24;100.00
70370;BME280;57790;51.356;-2.906;2023-12-07T03:08:23;100846.47;;;9.28;100.00
70370;BME280;57790;51.356;-2.906;2023-12-07T03:11:24;100849.53;;;9.23;100.00
70370;BME280;57790;51.356;-2.906;2023-12-07T03:14:24;100868.06;;;9.23;100.00
70370;BME280;57790;51.356;-2.906;2023-12-07T03:17:25;100837.31;;;9.22;100.00
70370;BME280;57790;51.356;-2.906;2023-12-07T03:20:25;100832.56;;;9.26;100.00
70370;BME280;57790;51.356;-2.906;2023-12-07T03:23:26;100810.94;;;9.31;100.00
70370;BME280;57790;51.356;-2.906;2023-12-07T03:26:26;100809.63;;;9.35;100.00
70370;BME280;57790;51.356;-2.906;2023-12-07T03:29:27;100791.59;;;9.30;100.00
70370;BME280;57790;51.356;-2.906;2023-12-07T03:32:27;100789.78;;;9.31;100.00
70370;BME280;57790;51.356;-2.906;2023-12-07T03:35:28;100806.69;;;9.38;100.00
70370;BME280;57790;51.356;-2.906;2023-12-07T03:38:28;100799.88;;;9.35;100.00
70370;BME280;57790;51.356;-2.906;2023-12-07T03:41:28;100770.44;;;9.30;100.00
70370;BME280;57790;51.356;-2.906;2023-12-07T03:44:29;100782.81;;;9.30;100.00
70370;BME280;57790;51.356;-2.906;2023-12-07T03:47:31;100760.88;;;9.37;100.00
70370;BME280;57790;51.356;-2.906;2023-12-07T03:50:31;100775.91;;;9.37;100.00
70370;BME280;57790;51.356;-2.906;2023-12-07T03:53:31;100770.31;;;9.40;100.00
70370;BME280;57790;51.356;-2.906;2023-12-07T03:56:33;100790.38;;;9.42;100.00
70370;BME280;57790;51.356;-2.906;2023-12-07T03:59:35;100795.94;;;9.39;100.00
70370;BME280;57790;51.356;-2.906;2023-12-07T04:02:36;100766.56;;;9.42;100.00
70370;BME280;57790;51.356;-2.906;2023-12-07T04:05:37;100766.16;;;9.37;100.00
70370;BME280;57790;51.356;-2.906;2023-12-07T04:08:38;100782.03;;;9.37;100.00
70370;BME280;57790;51.356;-2.906;2023-12-07T04:11:38;100782.88;;;9.38;100.00
70370;BME280;57790;51.356;-2.906;2023-12-07T04:14:38;100777.91;;;9.35;100.00
70370;BME280;57790;51.356;-2.906;2023-12-07T04:17:39;100782.81;;;9.30;100.00
70370;BME280;57790;51.356;-2.906;2023-12-07T04:20:39;100775.56;;;9.32;100.00
70370;BME280;57790;51.356;-2.906;2023-12-07T04:23:40;100774.38;;;9.26;100.00
70370;BME280;57790;51.356;-2.906;2023-12-07T04:26:40;100784.72;;;9.19;100.00
70370;BME280;57790;51.356;-2.906;2023-12-07T04:29:41;100774.06;;;9.29;100.00
70370;BME280;57790;51.356;-2.906;2023-12-07T04:32:42;100780.84;;;9.32;100.00
70370;BME280;57790;51.356;-2.906;2023-12-07T04:35:42;100776.56;;;9.31;100.00
70370;BME280;57790;51.356;-2.906;2023-12-07T04:38:43;100783.53;;;9.40;100.00
70370;BME280;57790;51.356;-2.906;2023-12-07T04:41:43;100777.69;;;9.28;100.00
70370;BME280;57790;51.356;-2.906;2023-12-07T04:44:43;100777.03;;;9.26;100.00
70370;BME280;57790;51.356;-2.906;2023-12-07T04:47:44;100773.06;;;9.30;100.00
70370;BME280;57790;51.356;-2.906;2023-12-07T04:50:45;100777.97;;;9.25;100.00
70370;BME280;57790;51.356;-2.906;2023-12-07T04:53:46;100785.78;;;9.27;100.00
70370;BME280;57790;51.356;-2.906;2023-12-07T04:56:47;100782.06;;;9.19;100.00
70370;BME280;57790;51.356;-2.906;2023-12-07T04:59:48;100782.59;;;9.23;100.00
70370;BME280;57790;51.356;-2.906;2023-12-07T05:02:48;100776.63;;;9.21;100.00
70370;BME280;57790;51.356;-2.906;2023-12-07T05:05:49;100773.31;;;9.19;100.00
70370;BME280;57790;51.356;-2.906;2023-12-07T05:08:50;100786.88;;;9.24;100.00
70370;BME280;57790;51.356;-2.906;2023-12-07T05:11:50;100796.06;;;9.30;100.00
70370;BME280;57790;51.356;-2.906;2023-12-07T05:14:51;100791.81;;;9.19;100.00
70370;BME280;57790;51.356;-2.906;2023-12-07T05:17:51;100787.28;;;9.29;100.00
70370;BME280;57790;51.356;-2.906;2023-12-07T05:20:51;100786.16;;;9.32;100.00
70370;BME280;57790;51.356;-2.906;2023-12-07T05:23:52;100770.19;;;9.23;100.00
70370;BME280;57790;51.356;-2.906;2023-12-07T05:26:52;100762.22;;;9.15;100.00
70370;BME280;57790;51.356;-2.906;2023-12-07T05:29:53;100763.25;;;9.22;100.00
70370;BME280;57790;51.356;-2.906;2023-12-07T05:32:53;100759.47;;;9.25;100.00
70370;BME280;57790;51.356;-2.906;2023-12-07T05:35:54;100750.69;;;9.24;100.00
70370;BME280;57790;51.356;-2.906;2023-12-07T05:38:54;100756.81;;;9.25;100.00
70370;BME280;57790;51.356;-2.906;2023-12-07T05:41:55;100740.25;;;9.23;100.00
70370;BME280;57790;51.356;-2.906;2023-12-07T05:44:55;100727.44;;;9.28;100.00
70370;BME280;57790;51.356;-2.906;2023-12-07T05:47:56;100731.19;;;9.25;100.00
70370;BME280;57790;51.356;-2.906;2023-12-07T05:50:57;100719.66;;;9.27;100.00
70370;BME280;57790;51.356;-2.906;2023-12-07T05:53:57;100727.88;;;9.23;100.00
70370;BME280;57790;51.356;-2.906;2023-12-07T05:56:57;100712.53;;;9.27;100.00
70370;BME280;57790;51.356;-2.906;2023-12-07T05:59:58;100701.66;;;9.30;100.00
70370;BME280;57790;51.356;-2.906;2023-12-07T06:02:58;100705.78;;;9.33;100.00
70370;BME280;57790;51.356;-2.906;2023-12-07T06:05:59;100717.03;;;9.35;100.00
70370;BME280;57790;51.356;-2.906;2023-12-07T06:09:00;100704.97;;;9.32;100.00
70370;BME280;57790;51.356;-2.906;2023-12-07T06:12:00;100701.13;;;9.27;100.00
70370;BME280;57790;51.356;-2.906;2023-12-07T06:15:01;100694.38;;;9.32;100.00
70370;BME280;57790;51.356;-2.906;2023-12-07T06:18:01;100703.72;;;9.18;100.00
70370;BME280;57790;51.356;-2.906;2023-12-07T06:21:01;100695.84;;;9.27;100.00
70370;BME280;57790;51.356;-2.906;2023-12-07T06:24:03;100698.84;;;9.32;100.00
70370;BME280;57790;51.356;-2.906;2023-12-07T06:27:04;100696.34;;;9.30;100.00
70370;BME280;57790;51.356;-2.906;2023-12-07T06:30:05;100681.47;;;9.29;100.00
70370;BME280;57790;51.356;-2.906;2023-12-07T06:33:06;100686.59;;;9.31;100.00
70370;BME280;57790;51.356;-2.906;2023-12-07T06:36:07;100682.50;;;9.36;100.00
70370;BME280;57790;51.356;-2.906;2023-12-07T06:39:07;100677.88;;;9.38;100.00
70370;BME280;57790;51.356;-2.906;2023-12-07T06:42:08;100676.88;;;9.39;100.00
70370;BME280;57790;51.356;-2.906;2023-12-07T06:45:08;100663.72;;;9.47;100.00
70370;BME280;57790;51.356;-2.906;2023-12-07T06:48:13;100668.34;;;9.45;100.00
70370;BME280;57790;51.356;-2.906;2023-12-07T06:51:14;100662.16;;;9.37;100.00
70370;BME280;57790;51.356;-2.906;2023-12-07T06:54:14;100663.88;;;9.46;100.00
70370;BME280;57790;51.356;-2.906;2023-12-07T06:57:15;100664.19;;;9.43;100.00
70370;BME280;57790;51.356;-2.906;2023-12-07T07:00:15;100671.97;;;9.44;100.00
70370;BME280;57790;51.356;-2.906;2023-12-07T07:03:18;100663.38;;;9.42;100.00
70370;BME280;57790;51.356;-2.906;2023-12-07T07:06:18;100661.16;;;9.38;100.00
70370;BME280;57790;51.356;-2.906;2023-12-07T07:09:19;100650.66;;;9.46;100.00
70370;BME280;57790;51.356;-2.906;2023-12-07T07:12:19;100642.22;;;9.50;100.00
70370;BME280;57790;51.356;-2.906;2023-12-07T07:15:19;100651.81;;;9.51;100.00
70370;BME280;57790;51.356;-2.906;2023-12-07T07:18:20;100652.31;;;9.47;100.00
70370;BME280;57790;51.356;-2.906;2023-12-07T07:21:24;100652.34;;;9.55;100.00
70370;BME280;57790;51.356;-2.906;2023-12-07T07:24:24;100654.47;;;9.51;100.00
70370;BME280;57790;51.356;-2.906;2023-12-07T07:27:24;100673.81;;;9.52;100.00
70370;BME280;57790;51.356;-2.906;2023-12-07T07:30:25;100665.88;;;9.52;100.00
70370;BME280;57790;51.356;-2.906;2023-12-07T07:33:26;100653.03;;;9.57;100.00
70370;BME280;57790;51.356;-2.906;2023-12-07T07:36:27;100647.72;;;9.57;100.00
70370;BME280;57790;51.356;-2.906;2023-12-07T07:39:27;100649.06;;;9.61;100.00
70370;BME280;57790;51.356;-2.906;2023-12-07T07:42:27;100648.91;;;9.63;100.00
70370;BME280;57790;51.356;-2.906;2023-12-07T07:45:28;100653.03;;;9.57;100.00
70370;BME280;57790;51.356;-2.906;2023-12-07T07:48:28;100630.34;;;9.54;100.00
70370;BME280;57790;51.356;-2.906;2023-12-07T07:51:29;100625.91;;;9.55;100.00
70370;BME280;57790;51.356;-2.906;2023-12-07T07:54:29;100620.28;;;9.58;100.00
70370;BME280;57790;51.356;-2.906;2023-12-07T07:57:30;100616.47;;;9.61;100.00
70370;BME280;57790;51.356;-2.906;2023-12-07T08:00:31;100614.50;;;9.63;100.00
70370;BME280;57790;51.356;-2.906;2023-12-07T08:03:33;100620.59;;;9.55;100.00
70370;BME280;57790;51.356;-2.906;2023-12-07T08:06:33;100606.06;;;9.59;100.00
70370;BME280;57790;51.356;-2.906;2023-12-07T08:09:34;100600.75;;;9.59;100.00
70370;BME280;57790;51.356;-2.906;2023-12-07T08:12:34;100591.34;;;9.65;100.00
70370;BME280;57790;51.356;-2.906;2023-12-07T08:15:35;100582.25;;;9.67;100.00
70370;BME280;57790;51.356;-2.906;2023-12-07T08:18:35;100582.78;;;9.71;100.00
70370;BME280;57790;51.356;-2.906;2023-12-07T08:21:36;100573.97;;;9.62;100.00
70370;BME280;57790;51.356;-2.906;2023-12-07T08:24:39;100571.00;;;9.65;100.00
70370;BME280;57790;51.356;-2.906;2023-12-07T08:27:40;100564.41;;;9.69;100.00
70370;BME280;57790;51.356;-2.906;2023-12-07T08:30:40;100549.81;;;9.65;100.00
70370;BME280;57790;51.356;-2.906;2023-12-07T08:33:41;100550.50;;;9.67;100.00
70370;BME280;57790;51.356;-2.906;2023-12-07T08:36:41;100543.41;;;9.76;100.00
70370;BME280;57790;51.356;-2.906;2023-12-07T08:39:42;100538.94;;;9.76;100.00
70370;BME280;57790;51.356;-2.906;2023-12-07T08:42:46;100525.03;;;9.74;100.00
70370;BME280;57790;51.356;-2.906;2023-12-07T08:45:47;100516.09;;;9.75;100.00
70370;BME280;57790;51.356;-2.906;2023-12-07T08:48:47;100506.69;;;9.73;100.00
70370;BME280;57790;51.356;-2.906;2023-12-07T08:51:48;100518.09;;;9.73;100.00
70370;BME280;57790;51.356;-2.906;2023-12-07T08:54:48;100518.75;;;9.75;100.00
70370;BME280;57790;51.356;-2.906;2023-12-07T08:57:48;100524.88;;;9.76;100.00
70370;BME280;57790;51.356;-2.906;2023-12-07T09:00:49;100515.28;;;9.75;100.00
70370;BME280;57790;51.356;-2.906;2023-12-07T09:03:50;100515.78;;;9.78;100.00
70370;BME280;57790;51.356;-2.906;2023-12-07T09:06:51;100507.00;;;9.78;100.00
70370;BME280;57790;51.356;-2.906;2023-12-07T09:09:51;100511.81;;;9.82;100.00
70370;BME280;57790;51.356;-2.906;2023-12-07T09:12:52;100520.91;;;9.80;100.00
70370;BME280;57790;51.356;-2.906;2023-12-07T09:15:52;100497.09;;;9.80;100.00
70370;BME280;57790;51.356;-2.906;2023-12-07T09:18:54;100508.69;;;9.87;100.00
70370;BME280;57790;51.356;-2.906;2023-12-07T09:21:54;100483.84;;;9.80;100.00
70370;BME280;57790;51.356;-2.906;2023-12-07T09:24:55;100470.28;;;9.83;100.00
70370;BME280;57790;51.356;-2.906;2023-12-07T09:27:55;100472.09;;;9.82;100.00
70370;BME280;57790;51.356;-2.906;2023-12-07T09:30:56;100446.44;;;9.83;100.00
70370;BME280;57790;51.356;-2.906;2023-12-07T09:33:56;100438.84;;;9.88;100.00
70370;BME280;57790;51.356;-2.906;2023-12-07T09:37:09;100443.31;;;9.88;100.00
70370;BME280;57790;51.356;-2.906;2023-12-07T09:40:15;100419.16;;;9.91;100.00
70370;BME280;57790;51.356;-2.906;2023-12-07T09:43:17;100418.00;;;9.93;100.00
70370;BME280;57790;51.356;-2.906;2023-12-07T09:46:18;100416.16;;;9.94;100.00
70370;BME280;57790;51.356;-2.906;2023-12-07T09:49:19;100424.13;;;9.94;100.00
70370;BME280;57790;51.356;-2.906;2023-12-07T09:52:21;100438.19;;;9.94;100.00
70370;BME280;57790;51.356;-2.906;2023-12-07T09:55:22;100441.34;;;9.90;100.00
70370;BME280;57790;51.356;-2.906;2023-12-07T09:58:23;100449.78;;;9.93;100.00
70370;BME280;57790;51.356;-2.906;2023-12-07T10:01:28;100444.66;;;10.00;100.00
70370;BME280;57790;51.356;-2.906;2023-12-07T10:04:29;100450.78;;;10.00;100.00
70370;BME280;57790;51.356;-2.906;2023-12-07T10:07:34;100454.06;;;9.94;100.00
70370;BME280;57790;51.356;-2.906;2023-12-07T10:10:36;100450.44;;;9.95;100.00
70370;BME280;57790;51.356;-2.906;2023-12-07T10:13:37;100463.66;;;9.95;100.00
70370;BME280;57790;51.356;-2.906;2023-12-07T10:16:38;100452.78;;;9.98;100.00
70370;BME280;57790;51.356;-2.906;2023-12-07T10:19:39;100455.88;;;9.94;100.00
70370;BME280;57790;51.356;-2.906;2023-12-07T10:22:39;100444.81;;;9.90;100.00
70370;BME280;57790;51.356;-2.906;2023-12-07T10:25:41;100422.47;;;9.93;100.00
70370;BME280;57790;51.356;-2.906;2023-12-07T10:28:42;100415.00;;;9.96;100.00
70370;BME280;57790;51.356;-2.906;2023-12-07T10:31:42;100427.41;;;9.96;100.00
70370;BME280;57790;51.356;-2.906;2023-12-07T10:34:45;100434.22;;;9.90;100.00
70370;BME280;57790;51.356;-2.906;2023-12-07T10:37:45;100442.31;;;9.97;100.00
70370;BME280;57790;51.356;-2.906;2023-12-07T10:40:49;100424.13;;;9.94;100.00
70370;BME280;57790;51.356;-2.906;2023-12-07T10:43:58;100408.56;;;9.99;100.00
70370;BME280;57790;51.356;-2.906;2023-12-07T10:47:00;100400.94;;;9.96;100.00
70370;BME280;57790;51.356;-2.906;2023-12-07T10:50:03;100394.81;;;9.95;100.00
70370;BME280;57790;51.356;-2.906;2023-12-07T10:53:09;100379.75;;;9.96;100.00
70370;BME280;57790;51.356;-2.906;2023-12-07T10:56:12;100386.22;;;9.93;100.00
70370;BME280;57790;51.356;-2.906;2023-12-07T10:59:14;100396.97;;;9.92;100.00
70370;BME280;57790;51.356;-2.906;2023-12-07T11:02:15;100389.03;;;9.92;100.00
70370;BME280;57790;51.356;-2.906;2023-12-07T11:05:17;100368.50;;;9.94;100.00
70370;BME280;57790;51.356;-2.906;2023-12-07T11:08:44;100365.22;;;10.00;100.00
70370;BME280;57790;51.356;-2.906;2023-12-07T11:11:50;100345.03;;;9.99;100.00
70370;BME280;57790;51.356;-2.906;2023-12-07T11:14:51;100341.22;;;10.01;100.00
70370;BME280;57790;51.356;-2.906;2023-12-07T11:17:55;100326.84;;;9.88;100.00
70370;BME280;57790;51.356;-2.906;2023-12-07T11:20:57;100337.38;;;9.96;100.00
70370;BME280;57790;51.356;-2.906;2023-12-07T11:24:01;100322.03;;;9.91;100.00
70370;BME280;57790;51.356;-2.906;2023-12-07T11:27:04;100315.72;;;9.92;100.00
70370;BME280;57790;51.356;-2.906;2023-12-07T11:30:05;100306.81;;;9.85;100.00
70370;BME280;57790;51.356;-2.906;2023-12-07T11:33:06;100306.66;;;9.87;100.00
70370;BME280;57790;51.356;-2.906;2023-12-07T11:36:08;100289.28;;;9.84;100.00
70370;BME280;57790;51.356;-2.906;2023-12-07T11:42:14;100288.28;;;9.85;100.00
70370;BME280;57790;51.356;-2.906;2023-12-07T11:45:15;100276.72;;;9.78;100.00
70370;BME280;57790;51.356;-2.906;2023-12-07T11:48:16;100280.66;;;9.82;100.00
70370;BME280;57790;51.356;-2.906;2023-12-07T11:51:18;100265.59;;;9.82;100.00
70370;BME280;57790;51.356;-2.906;2023-12-07T11:54:18;100266.28;;;9.84;100.00
70370;BME280;57790;51.356;-2.906;2023-12-07T11:57:19;100271.41;;;9.78;100.00
70370;BME280;57790;51.356;-2.906;2023-12-07T12:00:19;100263.13;;;9.81;100.00
70370;BME280;57790;51.356;-2.906;2023-12-07T12:03:20;100246.75;;;9.86;100.00
70370;BME280;57790;51.356;-2.906;2023-12-07T12:06:24;100246.59;;;9.79;100.00
70370;BME280;57790;51.356;-2.906;2023-12-07T12:09:24;100237.00;;;9.78;100.00
70370;BME280;57790;51.356;-2.906;2023-12-07T12:12:25;100228.72;;;9.81;100.00
70370;BME280;57790;51.356;-2.906;2023-12-07T12:15:25;100242.13;;;9.88;100.00
70370;BME280;57790;51.356;-2.906;2023-12-07T12:18:27;100244.25;;;9.92;100.00
70370;BME280;57790;51.356;-2.906;2023-12-07T12:21:27;100240.47;;;9.87;100.00
70370;BME280;57790;51.356;-2.906;2023-12-07T12:24:27;100238.78;;;9.94;100.00
70370;BME280;57790;51.356;-2.906;2023-12-07T12:27:29;100219.59;;;9.83;100.00
70370;BME280;57790;51.356;-2.906;2023-12-07T12:30:30;100212.34;;;9.86;100.00
70370;BME280;57790;51.356;-2.906;2023-12-07T12:33:31;100205.69;;;9.90;100.00
70370;BME280;57790;51.356;-2.906;2023-12-07T12:36:32;100203.06;;;9.90;100.00
70370;BME280;57790;51.356;-2.906;2023-12-07T12:39:33;100209.00;;;9.92;100.00
70370;BME280;57790;51.356;-2.906;2023-12-07T12:42:34;100202.34;;;9.96;100.00
70370;BME280;57790;51.356;-2.906;2023-12-07T12:45:37;100209.28;;;9.97;100.00
70370;BME280;57790;51.356;-2.906;2023-12-07T12:48:38;100194.09;;;9.99;100.00
70370;BME280;57790;51.356;-2.906;2023-12-07T12:51:54;100194.09;;;9.91;100.00
70370;BME280;57790;51.356;-2.906;2023-12-07T12:54:57;100187.44;;;10.03;100.00
70370;BME280;57790;51.356;-2.906;2023-12-07T12:57:58;100171.91;;;10.00;100.00
70370;BME280;57790;51.356;-2.906;2023-12-07T13:00:58;100167.59;;;9.99;100.00
70370;BME280;57790;51.356;-2.906;2023-12-07T13:03:59;100168.72;;;10.04;100.00
70370;BME280;57790;51.356;-2.906;2023-12-07T13:06:59;100153.19;;;10.01;100.00
70370;BME280;57790;51.356;-2.906;2023-12-07T13:10:00;100150.41;;;9.95;100.00
70370;BME280;57790;51.356;-2.906;2023-12-07T13:13:00;100154.66;;;10.04;100.00
70370;BME280;57790;51.356;-2.906;2023-12-07T13:16:02;100147.41;;;9.98;100.00
70370;BME280;57790;51.356;-2.906;2023-12-07T13:19:02;100139.78;;;10.03;100.00
70370;BME280;57790;51.356;-2.906;2023-12-07T13:22:03;100134.34;;;9.96;100.00
70370;BME280;57790;51.356;-2.906;2023-12-07T13:25:05;100126.06;;;9.99;100.00
70370;BME280;57790;51.356;-2.906;2023-12-07T13:28:06;100113.13;;;10.04;100.00
70370;BME280;57790;51.356;-2.906;2023-12-07T13:31:06;100078.72;;;9.96;100.00
70370;BME280;57790;51.356;-2.906;2023-12-07T13:34:07;100064.03;;;9.94;100.00
70370;BME280;57790;51.356;-2.906;2023-12-07T13:37:07;100038.97;;;10.04;100.00
70370;BME280;57790;51.356;-2.906;2023-12-07T13:40:08;100002.53;;;10.06;100.00
70370;BME280;57790;51.356;-2.906;2023-12-07T13:43:10;99970.41;;;10.09;100.00
70370;BME280;57790;51.356;-2.906;2023-12-07T13:46:10;99972.88;;;10.11;100.00
70370;BME280;57790;51.356;-2.906;2023-12-07T13:49:11;99976.78;;;10.00;100.00
70370;BME280;57790;51.356;-2.906;2023-12-07T13:52:12;99985.41;;;9.94;100.00
70370;BME280;57790;51.356;-2.906;2023-12-07T13:55:16;99999.28;;;9.96;100.00
70370;BME280;57790;51.356;-2.906;2023-12-07T13:58:17;99996.47;;;9.98;100.00
70370;BME280;57790;51.356;-2.906;2023-12-07T14:01:18;100001.47;;;9.93;100.00
70370;BME280;57790;51.356;-2.906;2023-12-07T14:04:18;100003.91;;;10.02;100.00
70370;BME280;57790;51.356;-2.906;2023-12-07T14:07:20;99997.16;;;10.00;100.00
70370;BME280;57790;51.356;-2.906;2023-12-07T14:10:21;100009.88;;;9.96;100.00
70370;BME280;57790;51.356;-2.906;2023-12-07T14:13:22;99998.59;;;10.02;100.00
70370;BME280;57790;51.356;-2.906;2023-12-07T14:16:24;99994.50;;;10.00;100.00
70370;BME280;57790;51.356;-2.906;2023-12-07T14:19:24;99983.31;;;9.90;100.00
70370;BME280;57790;51.356;-2.906;2023-12-07T14:22:25;99962.22;;;9.96;100.00
70370;BME280;57790;51.356;-2.906;2023-12-07T14:25:25;99959.06;;;10.01;100.00
70370;BME280;57790;51.356;-2.906;2023-12-07T14:28:25;99947.47;;;10.02;100.00
70370;BME280;57790;51.356;-2.906;2023-12-07T14:31:28;99945.06;;;9.92;100.00
70370;BME280;57790;51.356;-2.906;2023-12-07T14:34:28;99958.44;;;9.99;100.00
70370;BME280;57790;51.356;-2.906;2023-12-07T14:37:29;99958.06;;;10.02;100.00
70370;BME280;57790;51.356;-2.906;2023-12-07T14:40:29;99947.53;;;9.94;100.00
70370;BME280;57790;51.356;-2.906;2023-12-07T14:43:31;99945.84;;;10.01;100.00
70370;BME280;57790;51.356;-2.906;2023-12-07T14:46:31;99952.41;;;10.05;100.00
70370;BME280;57790;51.356;-2.906;2023-12-07T14:49:31;99935.16;;;10.09;100.00
70370;BME280;57790;51.356;-2.906;2023-12-07T14:52:32;99944.47;;;10.05;100.00
70370;BME280;57790;51.356;-2.906;2023-12-07T14:55:33;99934.41;;;10.00;100.00
70370;BME280;57790;51.356;-2.906;2023-12-07T14:58:33;99914.69;;;10.03;100.00
70370;BME280;57790;51.356;-2.906;2023-12-07T15:01:35;99919.25;;;10.09;100.00
70370;BME280;57790;51.356;-2.906;2023-12-07T15:04:37;99909.69;;;10.08;100.00
70370;BME280;57790;51.356;-2.906;2023-12-07T15:07:38;99915.44;;;10.11;100.00
70370;BME280;57790;51.356;-2.906;2023-12-07T15:10:39;99914.34;;;10.06;100.00
70370;BME280;57790;51.356;-2.906;2023-12-07T15:13:39;99911.41;;;10.01;100.00
70370;BME280;57790;51.356;-2.906;2023-12-07T15:16:40;99909.22;;;10.04;100.00
70370;BME280;57790;51.356;-2.906;2023-12-07T15:19:40;99905.38;;;10.07;100.00
70370;BME280;57790;51.356;-2.906;2023-12-07T15:22:40;99908.03;;;10.07;100.00
70370;BME280;57790;51.356;-2.906;2023-12-07T15:25:42;99908.41;;;10.04;100.00
70370;BME280;57790;51.356;-2.906;2023-12-07T15:28:42;99899.63;;;10.03;100.00
70370;BME280;57790;51.356;-2.906;2023-12-07T15:31:43;99900.09;;;10.07;100.00
70370;BME280;57790;51.356;-2.906;2023-12-07T15:34:43;99895.63;;;10.07;100.00
70370;BME280;57790;51.356;-2.906;2023-12-07T15:37:44;99892.78;;;10.09;100.00